sensor_id;sensor_type;location;lat;lon;timestamp;pressure;altitude;pressure_sealevel;temperature;humidity
24610;BME280;12758;47.890;11.694;2023-03-20T00:00:44;94002.34;;;9.73;100.00
24610;BME280;12758;47.890;11.694;2023-03-20T00:03:11;93998.34;;;9.88;100.00
24610;BME280;12758;47.890;11.694;2023-03-20T00:05:37;93992.75;;;9.75;100.00
24610;BME280;12758;47.890;11.694;2023-03-20T00:08:04;94002.81;;;9.75;100.00
24610;BME280;12758;47.890;11.694;2023-03-20T00:10:33;94001.53;;;9.64;100.00
24610;BME280;12758;47.890;11.694;2023-03-20T00:13:00;94002.66;;;9.71;100.00
24610;BME280;12758;47.890;11.694;2023-03-20T00:15:28;94000.41;;;9.91;100.00
24610;BME280;12758;47.890;11.694;2023-03-20T00:17:55;94008.69;;;9.94;100.00
24610;BME280;12758;47.890;11.694;2023-03-20T00:20:22;94010.47;;;9.73;100.00
24610;BME280;12758;47.890;11.694;2023-03-20T00:22:48;94011.28;;;9.73;100.00
24610;BME280;12758;47.890;11.694;2023-03-20T00:25:15;94007.41;;;9.40;100.00
24610;BME280;12758;47.890;11.694;2023-03-20T00:27:42;94008.66;;;9.33;100.00
24610;BME280;12758;47.890;11.694;2023-03-20T00:30:17;94005.97;;;9.60;100.00
24610;BME280;12758;47.890;11.694;2023-03-20T00:32:44;94002.97;;;9.61;100.00
24610;BME280;12758;47.890;11.694;2023-03-20T00:35:19;94003.91;;;9.65;100.00
24610;BME280;12758;47.890;11.694;2023-03-20T00:37:45;94009.50;;;9.77;100.00
24610;BME280;12758;47.890;11.694;2023-03-20T00:40:12;93999.63;;;9.55;100.00
24610;BME280;12758;47.890;11.694;2023-03-20T00:42:38;94001.00;;;9.18;100.00
24610;BME280;12758;47.890;11.694;2023-03-20T00:45:09;94000.72;;;9.46;100.00
24610;BME280;12758;47.890;11.694;2023-03-20T00:47:36;93995.94;;;9.43;100.00
24610;BME280;12758;47.890;11.694;2023-03-20T00:50:06;93995.94;;;9.43;100.00
24610;BME280;12758;47.890;11.694;2023-03-20T00:52:39;93995.13;;;9.25;100.00
24610;BME280;12758;47.890;11.694;2023-03-20T00:55:06;93999.72;;;9.24;100.00
24610;BME280;12758;47.890;11.694;2023-03-20T00:57:34;93996.22;;;9.15;100.00
24610;BME280;12758;47.890;11.694;2023-03-20T01:00:06;93997.19;;;9.37;100.00
24610;BME280;12758;47.890;11.694;2023-03-20T01:02:33;94000.09;;;9.49;100.00
24610;BME280;12758;47.890;11.694;2023-03-20T01:04:59;94008.03;;;9.37;100.00
24610;BME280;12758;47.890;11.694;2023-03-20T01:07:25;93998.50;;;9.48;100.00
24610;BME280;12758;47.890;11.694;2023-03-20T01:09:53;94010.28;;;9.69;100.00
24610;BME280;12758;47.890;11.694;2023-03-20T01:12:18;94002.97;;;9.61;100.00
24610;BME280;12758;47.890;11.694;2023-03-20T01:14:45;93999.78;;;9.76;100.00
24610;BME280;12758;47.890;11.694;2023-03-20T01:17:18;94002.16;;;9.69;100.00
24610;BME280;12758;47.890;11.694;2023-03-20T01:19:44;94001.84;;;9.97;100.00
24610;BME280;12758;47.890;11.694;2023-03-20T01:22:10;93999.13;;;9.97;100.00
24610;BME280;12758;47.890;11.694;2023-03-20T01:24:38;94000.56;;;10.12;100.00
24610;BME280;12758;47.890;11.694;2023-03-20T01:27:10;94001.50;;;10.16;100.00
24610;BME280;12758;47.890;11.694;2023-03-20T01:29:37;94006.78;;;9.95;100.00
24610;BME280;12758;47.890;11.694;2023-03-20T01:32:06;94003.78;;;10.05;100.00
24610;BME280;12758;47.890;11.694;2023-03-20T01:34:35;94004.72;;;10.09;100.00
24610;BME280;12758;47.890;11.694;2023-03-20T01:37:01;94001.69;;;10.02;100.00
24610;BME280;12758;47.890;11.694;2023-03-20T01:39:29;94004.72;;;9.92;100.00
24610;BME280;12758;47.890;11.694;2023-03-20T01:41:57;94005.53;;;9.75;100.00
24610;BME280;12758;47.890;11.694;2023-03-20T01:44:25;94005.03;;;9.99;100.00
24610;BME280;12758;47.890;11.694;2023-03-20T01:46:53;94004.25;;;9.90;100.00
24610;BME280;12758;47.890;11.694;2023-03-20T01:52:23;93999.94;;;9.89;100.00
24610;BME280;12758;47.890;11.694;2023-03-20T01:54:49;94009.19;;;9.88;100.00
24610;BME280;12758;47.890;11.694;2023-03-20T01:57:17;94004.56;;;9.97;100.00
24610;BME280;12758;47.890;11.694;2023-03-20T01:59:46;94011.56;;;9.98;100.00
24610;BME280;12758;47.890;11.694;2023-03-20T02:02:16;94006.00;;;10.03;100.00
24610;BME280;12758;47.890;11.694;2023-03-20T02:04:47;94004.41;;;9.85;100.00
24610;BME280;12758;47.890;11.694;2023-03-20T02:07:15;94010.78;;;9.54;100.00
24610;BME280;12758;47.890;11.694;2023-03-20T02:09:45;94006.78;;;9.69;100.00
24610;BME280;12758;47.890;11.694;2023-03-20T02:12:11;94009.50;;;9.77;100.00
24610;BME280;12758;47.890;11.694;2023-03-20T02:14:37;94004.06;;;9.95;100.00
24610;BME280;12758;47.890;11.694;2023-03-20T02:17:04;94008.22;;;10.01;100.00
24610;BME280;12758;47.890;11.694;2023-03-20T02:19:35;94004.25;;;9.90;100.00
24610;BME280;12758;47.890;11.694;2023-03-20T02:28:52;94001.34;;;9.95;100.00
24610;BME280;12758;47.890;11.694;2023-03-20T02:34:39;94004.06;;;9.69;100.00
24610;BME280;12758;47.890;11.694;2023-03-20T02:37:38;93996.28;;;9.76;100.00
24610;BME280;12758;47.890;11.694;2023-03-20T02:40:15;93998.81;;;9.38;100.00
24610;BME280;12758;47.890;11.694;2023-03-20T02:42:48;94000.75;;;9.63;100.00
24610;BME280;12758;47.890;11.694;2023-03-20T02:45:18;93998.53;;;9.83;100.00
24610;BME280;12758;47.890;11.694;2023-03-20T02:47:50;93992.91;;;9.88;100.00
24610;BME280;12758;47.890;11.694;2023-03-20T02:50:19;93998.66;;;9.69;100.00
24610;BME280;12758;47.890;11.694;2023-03-20T02:52:59;94002.81;;;9.75;100.00
24610;BME280;12758;47.890;11.694;2023-03-20T02:55:32;93996.75;;;9.78;100.00
24610;BME280;12758;47.890;11.694;2023-03-20T02:58:02;93995.94;;;9.77;100.00
24610;BME280;12758;47.890;11.694;2023-03-20T03:00:32;93991.63;;;9.85;100.00
24610;BME280;12758;47.890;11.694;2023-03-20T03:03:04;93999.94;;;9.89;100.00
24610;BME280;12758;47.890;11.694;2023-03-20T03:05:35;93999.47;;;9.87;100.00
24610;BME280;12758;47.890;11.694;2023-03-20T03:08:04;93996.56;;;9.92;100.00
24610;BME280;12758;47.890;11.694;2023-03-20T03:10:33;93996.41;;;9.88;100.00
24610;BME280;12758;47.890;11.694;2023-03-20T03:13:00;94002.34;;;9.99;100.00
24610;BME280;12758;47.890;11.694;2023-03-20T03:15:29;94001.84;;;10.06;100.00
24610;BME280;12758;47.890;11.694;2023-03-20T03:17:57;94009.00;;;10.01;100.00
24610;BME280;12758;47.890;11.694;2023-03-20T03:20:25;94005.00;;;10.08;100.00
24610;BME280;12758;47.890;11.694;2023-03-20T03:22:53;93993.53;;;10.11;100.00
24610;BME280;12758;47.890;11.694;2023-03-20T03:25:23;94000.06;;;10.18;100.00
24610;BME280;12758;47.890;11.694;2023-03-20T03:27:53;93996.88;;;10.16;100.00
24610;BME280;12758;47.890;11.694;2023-03-20T03:30:24;94005.34;;;10.15;100.00
24610;BME280;12758;47.890;11.694;2023-03-20T03:33:00;93999.28;;;10.18;100.00
24610;BME280;12758;47.890;11.694;2023-03-20T03:35:31;94002.31;;;10.16;100.00
24610;BME280;12758;47.890;11.694;2023-03-20T03:37:59;94001.66;;;10.19;100.00
24610;BME280;12758;47.890;11.694;2023-03-20T03:40:30;94010.13;;;10.18;100.00
24610;BME280;12758;47.890;11.694;2023-03-20T03:43:00;94013.94;;;10.17;100.00
24610;BME280;12758;47.890;11.694;2023-03-20T03:45:30;94013.31;;;10.20;100.00
24610;BME280;12758;47.890;11.694;2023-03-20T03:48:00;94010.94;;;10.18;100.00
24610;BME280;12758;47.890;11.694;2023-03-20T03:50:28;94021.94;;;10.22;100.00
24610;BME280;12758;47.890;11.694;2023-03-20T03:52:56;94015.22;;;10.19;100.00
24610;BME280;12758;47.890;11.694;2023-03-20T03:55:25;94017.78;;;10.16;100.00
24610;BME280;12758;47.890;11.694;2023-03-20T03:57:56;94014.44;;;10.10;100.00
24610;BME280;12758;47.890;11.694;2023-03-20T04:00:24;94018.28;;;10.09;100.00
24610;BME280;12758;47.890;11.694;2023-03-20T04:02:54;94016.03;;;10.11;100.00
24610;BME280;12758;47.890;11.694;2023-03-20T04:05:21;94022.09;;;10.08;100.00
24610;BME280;12758;47.890;11.694;2023-03-20T04:07:52;94019.84;;;10.10;100.00
24610;BME280;12758;47.890;11.694;2023-03-20T04:10:18;94022.75;;;10.05;100.00
24610;BME280;12758;47.890;11.694;2023-03-20T04:12:45;94020.97;;;10.00;100.00
24610;BME280;12758;47.890;11.694;2023-03-20T04:15:13;94020.34;;;10.03;100.00
24610;BME280;12758;47.890;11.694;2023-03-20T04:17:39;94028.16;;;10.05;100.00
24610;BME280;12758;47.890;11.694;2023-03-20T04:20:08;94029.59;;;9.85;100.00
24610;BME280;12758;47.890;11.694;2023-03-20T04:22:34;94033.91;;;9.95;100.00
24610;BME280;12758;47.890;11.694;2023-03-20T04:25:00;94034.38;;;9.88;100.00
24610;BME280;12758;47.890;11.694;2023-03-20T04:27:27;94035.34;;;9.92;100.00
24610;BME280;12758;47.890;11.694;2023-03-20T04:29:53;94040.94;;;9.96;100.00
24610;BME280;12758;47.890;11.694;2023-03-20T04:32:20;94047.00;;;9.93;100.00
24610;BME280;12758;47.890;11.694;2023-03-20T04:34:46;94039.50;;;9.90;100.00
24610;BME280;12758;47.890;11.694;2023-03-20T04:37:13;94046.50;;;9.73;100.00
24610;BME280;12758;47.890;11.694;2023-03-20T04:39:39;94042.81;;;9.78;100.00
24610;BME280;12758;47.890;11.694;2023-03-20T04:42:08;94053.06;;;9.90;100.00
24610;BME280;12758;47.890;11.694;2023-03-20T04:44:34;94051.94;;;9.73;100.00
24610;BME280;12758;47.890;11.694;2023-03-20T04:47:00;94044.44;;;9.70;100.00
24610;BME280;12758;47.890;11.694;2023-03-20T04:49:27;94055.59;;;9.86;100.00
24610;BME280;12758;47.890;11.694;2023-03-20T04:51:53;94057.50;;;9.68;100.00
24610;BME280;12758;47.890;11.694;2023-03-20T04:54:19;94050.44;;;9.50;100.00
24610;BME280;12758;47.890;11.694;2023-03-20T04:56:45;94047.78;;;9.67;100.00
24610;BME280;12758;47.890;11.694;2023-03-20T04:59:12;94063.22;;;9.75;100.00
24610;BME280;12758;47.890;11.694;2023-03-20T05:01:38;94059.25;;;9.73;100.00
24610;BME280;12758;47.890;11.694;2023-03-20T05:04:04;94068.00;;;9.04;100.00
24610;BME280;12758;47.890;11.694;2023-03-20T05:06:31;94074.09;;;9.09;100.00
24610;BME280;12758;47.890;11.694;2023-03-20T05:08:57;94071.00;;;9.42;100.00
24610;BME280;12758;47.890;11.694;2023-03-20T05:11:24;94069.72;;;9.40;100.00
24610;BME280;12758;47.890;11.694;2023-03-20T05:13:50;94072.13;;;9.50;100.00
24610;BME280;12758;47.890;11.694;2023-03-20T05:16:16;94073.56;;;9.47;100.00
24610;BME280;12758;47.890;11.694;2023-03-20T05:18:42;94075.00;;;9.05;100.00
24610;BME280;12758;47.890;11.694;2023-03-20T05:21:08;94071.94;;;9.38;100.00
24610;BME280;12758;47.890;11.694;2023-03-20T05:23:35;94073.22;;;9.40;100.00
24610;BME280;12758;47.890;11.694;2023-03-20T05:26:01;94075.69;;;9.10;100.00
24610;BME280;12758;47.890;11.694;2023-03-20T05:28:27;94075.22;;;9.17;100.00
24610;BME280;12758;47.890;11.694;2023-03-20T05:30:53;94079.72;;;9.30;100.00
24610;BME280;12758;47.890;11.694;2023-03-20T05:33:20;94088.22;;;9.38;100.00
24610;BME280;12758;47.890;11.694;2023-03-20T05:35:46;94070.78;;;9.21;100.00
24610;BME280;12758;47.890;11.694;2023-03-20T05:38:12;94082.16;;;9.01;100.00
24610;BME280;12758;47.890;11.694;2023-03-20T05:40:39;94089.53;;;9.09;100.00
24610;BME280;12758;47.890;11.694;2023-03-20T05:43:06;94090.34;;;8.78;100.00
24610;BME280;12758;47.890;11.694;2023-03-20T05:45:32;94093.25;;;8.59;100.00
24610;BME280;12758;47.890;11.694;2023-03-20T05:47:58;94096.47;;;8.61;100.00
24610;BME280;12758;47.890;11.694;2023-03-20T05:50:24;94092.34;;;8.19;100.00
24610;BME280;12758;47.890;11.694;2023-03-20T05:52:50;94093.84;;;8.11;100.00
24610;BME280;12758;47.890;11.694;2023-03-20T05:55:16;94098.72;;;8.01;100.00
24610;BME280;12758;47.890;11.694;2023-03-20T05:57:43;94099.84;;;8.22;100.00
24610;BME280;12758;47.890;11.694;2023-03-20T06:00:10;94111.88;;;8.16;100.00
24610;BME280;12758;47.890;11.694;2023-03-20T06:02:36;94116.06;;;7.86;100.00
24610;BME280;12758;47.890;11.694;2023-03-20T06:05:02;94108.59;;;7.69;100.00
24610;BME280;12758;47.890;11.694;2023-03-20T06:07:28;94111.50;;;7.73;100.00
24610;BME280;12758;47.890;11.694;2023-03-20T06:09:55;94113.91;;;7.74;100.00
24610;BME280;12758;47.890;11.694;2023-03-20T06:12:21;94119.72;;;8.04;100.00
24610;BME280;12758;47.890;11.694;2023-03-20T06:14:47;94120.56;;;7.90;100.00
24610;BME280;12758;47.890;11.694;2023-03-20T06:17:13;94121.75;;;7.98;100.00
24610;BME280;12758;47.890;11.694;2023-03-20T06:19:39;94125.31;;;7.71;100.00
24610;BME280;12758;47.890;11.694;2023-03-20T06:22:05;94125.50;;;8.11;100.00
24610;BME280;12758;47.890;11.694;2023-03-20T06:24:31;94124.59;;;8.15;100.00
24610;BME280;12758;47.890;11.694;2023-03-20T06:26:58;94132.19;;;7.91;100.00
24610;BME280;12758;47.890;11.694;2023-03-20T06:29:24;94135.28;;;7.84;100.00
24610;BME280;12758;47.890;11.694;2023-03-20T06:31:50;94134.31;;;7.80;100.00
24610;BME280;12758;47.890;11.694;2023-03-20T06:34:16;94133.53;;;7.66;100.00
24610;BME280;12758;47.890;11.694;2023-03-20T06:36:42;94132.03;;;7.60;100.00
24610;BME280;12758;47.890;11.694;2023-03-20T06:39:08;94135.78;;;7.86;100.00
24610;BME280;12758;47.890;11.694;2023-03-20T06:41:34;94133.81;;;7.78;100.00
24610;BME280;12758;47.890;11.694;2023-03-20T06:44:01;94136.59;;;7.87;100.00
24610;BME280;12758;47.890;11.694;2023-03-20T06:46:27;94134.59;;;7.79;100.00
24610;BME280;12758;47.890;11.694;2023-03-20T06:48:53;94135.56;;;7.97;100.00
24610;BME280;12758;47.890;11.694;2023-03-20T06:51:20;94144.16;;;7.99;100.00
24610;BME280;12758;47.890;11.694;2023-03-20T06:53:46;94149.31;;;8.09;100.00
24610;BME280;12758;47.890;11.694;2023-03-20T06:56:12;94150.34;;;8.13;100.00
24610;BME280;12758;47.890;11.694;2023-03-20T06:58:38;94155.25;;;8.11;100.00
24610;BME280;12758;47.890;11.694;2023-03-20T07:01:08;94154.41;;;8.24;100.00
24610;BME280;12758;47.890;11.694;2023-03-20T07:03:34;94145.59;;;7.96;100.00
24610;BME280;12758;47.890;11.694;2023-03-20T07:06:01;94158.72;;;7.75;100.00
24610;BME280;12758;47.890;11.694;2023-03-20T07:08:27;94153.22;;;7.80;100.00
24610;BME280;12758;47.890;11.694;2023-03-20T07:10:53;94159.31;;;7.72;100.00
24610;BME280;12758;47.890;11.694;2023-03-20T07:13:19;94154.22;;;7.84;100.00
24610;BME280;12758;47.890;11.694;2023-03-20T07:15:45;94152.63;;;7.83;100.00
24610;BME280;12758;47.890;11.694;2023-03-20T07:18:11;94152.41;;;7.93;100.00
24610;BME280;12758;47.890;11.694;2023-03-20T07:20:37;94154.59;;;7.91;100.00
24610;BME280;12758;47.890;11.694;2023-03-20T07:23:04;94151.97;;;7.86;100.00
24610;BME280;12758;47.890;11.694;2023-03-20T07:25:30;94161.81;;;7.82;100.00
24610;BME280;12758;47.890;11.694;2023-03-20T07:27:56;94158.25;;;8.09;100.00
24610;BME280;12758;47.890;11.694;2023-03-20T07:30:23;94153.91;;;8.22;100.00
24610;BME280;12758;47.890;11.694;2023-03-20T07:32:49;94160.69;;;8.33;100.00
24610;BME280;12758;47.890;11.694;2023-03-20T07:35:15;94161.94;;;8.13;100.00
24610;BME280;12758;47.890;11.694;2023-03-20T07:37:41;94163.06;;;7.99;100.00
24610;BME280;12758;47.890;11.694;2023-03-20T07:40:09;94166.94;;;8.20;100.00
24610;BME280;12758;47.890;11.694;2023-03-20T07:42:35;94165.53;;;8.23;100.00
24610;BME280;12758;47.890;11.694;2023-03-20T07:45:02;94173.09;;;8.34;100.00
24610;BME280;12758;47.890;11.694;2023-03-20T07:47:28;94165.63;;;8.54;100.00
24610;BME280;12758;47.890;11.694;2023-03-20T07:49:54;94168.09;;;8.42;100.00
24610;BME280;12758;47.890;11.694;2023-03-20T07:52:20;94175.38;;;8.05;100.00
24610;BME280;12758;47.890;11.694;2023-03-20T07:54:46;94184.78;;;8.07;100.00
24610;BME280;12758;47.890;11.694;2023-03-20T07:57:12;94184.59;;;8.04;100.00
24610;BME280;12758;47.890;11.694;2023-03-20T07:59:39;94187.13;;;7.86;100.00
24610;BME280;12758;47.890;11.694;2023-03-20T08:02:05;94192.66;;;7.81;100.00
24610;BME280;12758;47.890;11.694;2023-03-20T08:04:31;94192.72;;;8.04;100.00
24610;BME280;12758;47.890;11.694;2023-03-20T08:06:57;94189.81;;;7.86;100.00
24610;BME280;12758;47.890;11.694;2023-03-20T08:09:23;94201.34;;;7.78;100.00
24610;BME280;12758;47.890;11.694;2023-03-20T08:11:49;94199.41;;;7.92;100.00
24610;BME280;12758;47.890;11.694;2023-03-20T08:14:16;94205.66;;;7.79;100.00
24610;BME280;12758;47.890;11.694;2023-03-20T08:16:42;94195.84;;;7.83;100.00
24610;BME280;12758;47.890;11.694;2023-03-20T08:19:08;94196.66;;;7.84;100.00
24610;BME280;12758;47.890;11.694;2023-03-20T08:21:34;94191.53;;;7.82;100.00
24610;BME280;12758;47.890;11.694;2023-03-20T08:24:00;94202.03;;;7.98;100.00
24610;BME280;12758;47.890;11.694;2023-03-20T08:26:26;94194.19;;;8.10;100.00
24610;BME280;12758;47.890;11.694;2023-03-20T08:28:52;94199.22;;;8.03;100.00
24610;BME280;12758;47.890;11.694;2023-03-20T08:31:18;94189.78;;;8.14;100.00
24610;BME280;12758;47.890;11.694;2023-03-20T08:33:45;94194.94;;;8.24;100.00
24610;BME280;12758;47.890;11.694;2023-03-20T08:36:11;94197.06;;;8.27;100.00
24610;BME280;12758;47.890;11.694;2023-03-20T08:38:39;94198.78;;;8.23;100.00
24610;BME280;12758;47.890;11.694;2023-03-20T08:41:05;94213.50;;;8.17;100.00
24610;BME280;12758;47.890;11.694;2023-03-20T08:43:32;94200.75;;;8.31;100.00
24610;BME280;12758;47.890;11.694;2023-03-20T08:45:58;94207.63;;;8.37;100.00
24610;BME280;12758;47.890;11.694;2023-03-20T08:48:25;94209.03;;;8.49;100.00
24610;BME280;12758;47.890;11.694;2023-03-20T08:50:51;94200.06;;;8.39;100.00
24610;BME280;12758;47.890;11.694;2023-03-20T08:53:17;94193.53;;;8.63;100.00
24610;BME280;12758;47.890;11.694;2023-03-20T08:55:46;94193.50;;;8.54;100.00
24610;BME280;12758;47.890;11.694;2023-03-20T08:58:12;94188.13;;;8.63;100.00
24610;BME280;12758;47.890;11.694;2023-03-20T09:00:38;94178.06;;;8.55;100.00
24610;BME280;12758;47.890;11.694;2023-03-20T09:03:04;94193.19;;;8.78;100.00
24610;BME280;12758;47.890;11.694;2023-03-20T09:05:31;94180.41;;;8.70;100.00
24610;BME280;12758;47.890;11.694;2023-03-20T09:07:57;94182.34;;;8.78;100.00
24610;BME280;12758;47.890;11.694;2023-03-20T09:10:23;94175.22;;;8.82;100.00
24610;BME280;12758;47.890;11.694;2023-03-20T09:12:49;94183.94;;;8.79;100.00
24610;BME280;12758;47.890;11.694;2023-03-20T09:15:15;94182.09;;;8.89;100.00
24610;BME280;12758;47.890;11.694;2023-03-20T09:17:41;94180.25;;;8.98;100.00
24610;BME280;12758;47.890;11.694;2023-03-20T09:20:08;94182.09;;;8.89;100.00
24610;BME280;12758;47.890;11.694;2023-03-20T09:22:35;94186.28;;;8.95;100.00
24610;BME280;12758;47.890;11.694;2023-03-20T09:25:01;94183.53;;;9.17;100.00
24610;BME280;12758;47.890;11.694;2023-03-20T09:27:27;94180.44;;;9.32;100.00
24610;BME280;12758;47.890;11.694;2023-03-20T09:29:53;94170.44;;;9.42;100.00
24610;BME280;12758;47.890;11.694;2023-03-20T09:32:19;94161.06;;;9.48;100.00
24610;BME280;12758;47.890;11.694;2023-03-20T09:34:45;94165.84;;;9.51;100.00
24610;BME280;12758;47.890;11.694;2023-03-20T09:37:11;94169.66;;;9.50;100.00
24610;BME280;12758;47.890;11.694;2023-03-20T09:39:37;94166.47;;;9.48;100.00
24610;BME280;12758;47.890;11.694;2023-03-20T09:42:07;94167.50;;;9.29;100.00
24610;BME280;12758;47.890;11.694;2023-03-20T09:44:44;94172.72;;;9.17;100.00
24610;BME280;12758;47.890;11.694;2023-03-20T09:47:18;94171.56;;;9.09;100.00
24610;BME280;12758;47.890;11.694;2023-03-20T09:50:01;94172.97;;;9.07;100.00
24610;BME280;12758;47.890;11.694;2023-03-20T09:52:33;94166.44;;;9.08;100.00
24610;BME280;12758;47.890;11.694;2023-03-20T09:55:02;94167.78;;;9.19;100.00
24610;BME280;12758;47.890;11.694;2023-03-20T09:57:35;94174.50;;;9.22;100.00
24610;BME280;12758;47.890;11.694;2023-03-20T10:00:05;94171.47;;;9.23;100.00
24610;BME280;12758;47.890;11.694;2023-03-20T10:02:37;94172.84;;;9.12;100.00
24610;BME280;12758;47.890;11.694;2023-03-20T10:05:13;94177.59;;;9.06;100.00
24610;BME280;12758;47.890;11.694;2023-03-20T10:07:42;94177.41;;;9.03;100.00
24610;BME280;12758;47.890;11.694;2023-03-20T10:10:12;94171.38;;;9.06;100.00
24610;BME280;12758;47.890;11.694;2023-03-20T10:12:46;94174.56;;;9.08;100.00
24610;BME280;12758;47.890;11.694;2023-03-20T10:15:18;94166.16;;;9.09;100.00
24610;BME280;12758;47.890;11.694;2023-03-20T10:17:50;94170.78;;;9.09;100.00
24610;BME280;12758;47.890;11.694;2023-03-20T10:20:24;94178.50;;;9.02;100.00
24610;BME280;12758;47.890;11.694;2023-03-20T10:22:54;94176.44;;;8.99;100.00
24610;BME280;12758;47.890;11.694;2023-03-20T10:25:27;94175.63;;;8.98;100.00
24610;BME280;12758;47.890;11.694;2023-03-20T10:27:57;94168.00;;;9.00;100.00
24610;BME280;12758;47.890;11.694;2023-03-20T10:30:40;94171.22;;;9.02;100.00
24610;BME280;12758;47.890;11.694;2023-03-20T10:33:17;94163.72;;;9.08;100.00
24610;BME280;12758;47.890;11.694;2023-03-20T10:35:56;94163.97;;;9.20;100.00
24610;BME280;12758;47.890;11.694;2023-03-20T10:38:30;94164.81;;;9.29;100.00
24610;BME280;12758;47.890;11.694;2023-03-20T10:41:03;94161.97;;;9.35;100.00
24610;BME280;12758;47.890;11.694;2023-03-20T10:43:35;94164.19;;;9.32;100.00
24610;BME280;12758;47.890;11.694;2023-03-20T10:46:04;94153.97;;;9.29;100.00
24610;BME280;12758;47.890;11.694;2023-03-20T10:48:34;94151.16;;;9.43;100.00
24610;BME280;12758;47.890;11.694;2023-03-20T10:51:02;94143.47;;;9.37;100.00
24610;BME280;12758;47.890;11.694;2023-03-20T10:53:31;94150.84;;;9.45;100.00
24610;BME280;12758;47.890;11.694;2023-03-20T10:56:02;94138.13;;;9.54;100.00
24610;BME280;12758;47.890;11.694;2023-03-20T10:58:31;94145.63;;;9.66;100.00
24610;BME280;12758;47.890;11.694;2023-03-20T11:00:58;94136.53;;;9.53;100.00
24610;BME280;12758;47.890;11.694;2023-03-20T11:03:26;94146.09;;;9.59;100.00
24610;BME280;12758;47.890;11.694;2023-03-20T11:05:54;94145.63;;;9.66;100.00
24610;BME280;12758;47.890;11.694;2023-03-20T11:08:23;94142.94;;;9.57;100.00
24610;BME280;12758;47.890;11.694;2023-03-20T11:10:57;94139.88;;;9.59;100.00
24610;BME280;12758;47.890;11.694;2023-03-20T11:13:25;94139.59;;;9.60;100.00
24610;BME280;12758;47.890;11.694;2023-03-20T11:15:54;94134.47;;;9.59;100.00
24610;BME280;12758;47.890;11.694;2023-03-20T11:18:23;94134.47;;;9.59;100.00
24610;BME280;12758;47.890;11.694;2023-03-20T11:20:51;94138.13;;;9.54;100.00
24610;BME280;12758;47.890;11.694;2023-03-20T11:23:19;94143.19;;;9.47;100.00
24610;BME280;12758;47.890;11.694;2023-03-20T11:25:51;94131.59;;;9.55;100.00
24610;BME280;12758;47.890;11.694;2023-03-20T11:28:26;94134.31;;;9.55;100.00
24610;BME280;12758;47.890;11.694;2023-03-20T11:30:59;94135.13;;;9.64;100.00
24610;BME280;12758;47.890;11.694;2023-03-20T11:33:26;94130.19;;;9.66;100.00
24610;BME280;12758;47.890;11.694;2023-03-20T11:35:54;94122.22;;;9.78;100.00
24610;BME280;12758;47.890;11.694;2023-03-20T11:38:21;94126.06;;;9.77;100.00
24610;BME280;12758;47.890;11.694;2023-03-20T11:40:48;94128.81;;;9.86;100.00
24610;BME280;12758;47.890;11.694;2023-03-20T11:43:18;94118.94;;;9.99;100.00
24610;BME280;12758;47.890;11.694;2023-03-20T11:45:48;94115.75;;;10.06;100.00
24610;BME280;12758;47.890;11.694;2023-03-20T11:48:17;94130.94;;;10.33;100.00
24610;BME280;12758;47.890;11.694;2023-03-20T11:50:45;94118.16;;;10.24;100.00
24610;BME280;12758;47.890;11.694;2023-03-20T11:53:23;94115.59;;;10.19;100.00
24610;BME280;12758;47.890;11.694;2023-03-20T11:56:03;94114.66;;;10.33;100.00
24610;BME280;12758;47.890;11.694;2023-03-20T11:58:30;94120.38;;;10.40;100.00
24610;BME280;12758;47.890;11.694;2023-03-20T12:00:57;94113.06;;;10.32;100.00
24610;BME280;12758;47.890;11.694;2023-03-20T12:03:39;94111.94;;;10.33;100.00
24610;BME280;12758;47.890;11.694;2023-03-20T12:06:07;94110.84;;;10.34;100.00
24610;BME280;12758;47.890;11.694;2023-03-20T12:08:34;94106.66;;;10.36;100.00
24610;BME280;12758;47.890;11.694;2023-03-20T12:11:05;94105.41;;;10.34;100.00
24610;BME280;12758;47.890;11.694;2023-03-20T12:13:34;94100.63;;;10.31;100.00
24610;BME280;12758;47.890;11.694;2023-03-20T12:16:04;94102.69;;;10.34;100.00
24610;BME280;12758;47.890;11.694;2023-03-20T12:18:32;94114.31;;;10.43;100.00
24610;BME280;12758;47.890;11.694;2023-03-20T12:21:03;94096.16;;;10.43;100.00
24610;BME280;12758;47.890;11.694;2023-03-20T12:23:33;94100.59;;;10.48;100.00
24610;BME280;12758;47.890;11.694;2023-03-20T12:26:03;94099.97;;;10.51;100.00
24610;BME280;12758;47.890;11.694;2023-03-20T12:28:33;94102.69;;;10.51;100.00
24610;BME280;12758;47.890;11.694;2023-03-20T12:31:14;94093.91;;;10.54;100.00
24610;BME280;12758;47.890;11.694;2023-03-20T12:33:44;94090.69;;;10.52;100.00
24610;BME280;12758;47.890;11.694;2023-03-20T12:36:16;94098.03;;;10.60;100.00
24610;BME280;12758;47.890;11.694;2023-03-20T12:38:43;94097.84;;;10.65;100.00
24610;BME280;12758;47.890;11.694;2023-03-20T12:41:12;94091.78;;;10.77;100.00
24610;BME280;12758;47.890;11.694;2023-03-20T12:43:46;94103.41;;;10.78;100.00
24610;BME280;12758;47.890;11.694;2023-03-20T12:46:24;94105.03;;;10.79;100.00
24610;BME280;12758;47.890;11.694;2023-03-20T12:48:54;94097.47;;;10.93;100.00
24610;BME280;12758;47.890;11.694;2023-03-20T12:51:29;94096.19;;;10.90;100.00
24610;BME280;12758;47.890;11.694;2023-03-20T12:54:06;94094.75;;;10.93;100.00
24610;BME280;12758;47.890;11.694;2023-03-20T12:56:48;94093.19;;;10.92;100.00
24610;BME280;12758;47.890;11.694;2023-03-20T12:59:19;94090.28;;;10.97;100.00
24610;BME280;12758;47.890;11.694;2023-03-20T13:01:52;94096.00;;;11.04;100.00
24610;BME280;12758;47.890;11.694;2023-03-20T13:04:42;94096.84;;;10.96;100.00
24610;BME280;12758;47.890;11.694;2023-03-20T13:07:17;94093.63;;;10.94;100.00